createdAt,value
2018-07-19T00:02:25.199Z,8.67
2018-07-19T00:04:53.892Z,7.93
2018-07-19T00:07:22.543Z,9.07
2018-07-19T00:09:51.084Z,8.90
2018-07-19T00:12:19.747Z,9.30
2018-07-19T00:14:48.356Z,10.57
2018-07-19T00:17:17.016Z,10.40
2018-07-19T00:19:45.676Z,11.03
2018-07-19T00:22:15.957Z,11.00
2018-07-19T00:24:44.634Z,11.13
2018-07-19T00:27:13.272Z,12.03
2018-07-19T00:29:41.961Z,11.87
2018-07-19T00:32:11.155Z,11.87
2018-07-19T00:34:39.813Z,13.30
2018-07-19T00:37:08.453Z,13.93
2018-07-19T00:39:37.231Z,13.37
2018-07-19T00:42:05.857Z,13.00
2018-07-19T00:44:34.520Z,13.60
2018-07-19T00:47:03.280Z,13.97
2018-07-19T00:49:31.992Z,13.87
2018-07-19T00:52:00.727Z,13.33
2018-07-19T00:54:29.385Z,13.37
2018-07-19T00:56:57.988Z,13.13
2018-07-19T00:59:26.628Z,11.10
2018-07-19T01:01:55.314Z,11.17
2018-07-19T01:04:24.062Z,11.10
2018-07-19T01:06:52.752Z,10.03
2018-07-19T01:09:21.428Z,9.23
2018-07-19T01:11:50.123Z,9.20
2018-07-19T01:14:18.748Z,9.00
2018-07-19T01:16:47.409Z,9.43
2018-07-19T01:19:16.105Z,9.17
2018-07-19T01:21:44.820Z,8.37
2018-07-19T01:24:13.437Z,7.47
2018-07-19T01:26:42.107Z,8.03
2018-07-19T01:29:10.714Z,8.20
2018-07-19T01:31:39.446Z,7.90
2018-07-19T01:34:08.132Z,8.50
2018-07-19T01:36:36.694Z,8.57
2018-07-19T01:39:08.252Z,8.70
2018-07-19T01:41:51.777Z,8.77
2018-07-19T01:44:20.505Z,8.73
2018-07-19T01:46:49.229Z,9.20
2018-07-19T01:49:17.968Z,8.80
2018-07-19T01:51:46.617Z,8.40
2018-07-19T01:54:15.271Z,8.50
2018-07-19T01:56:44.004Z,7.80
2018-07-19T01:59:12.632Z,8.03
2018-07-19T02:01:41.371Z,8.43
2018-07-19T02:04:09.954Z,8.33
2018-07-19T02:06:38.649Z,7.93
2018-07-19T02:09:07.400Z,8.57
2018-07-19T02:11:36.229Z,7.43
2018-07-19T02:14:04.852Z,8.37
2018-07-19T02:16:33.430Z,7.67
2018-07-19T02:19:02.079Z,6.97
2018-07-19T02:21:30.700Z,7.10
2018-07-19T02:23:59.353Z,6.60
2018-07-19T02:26:28.003Z,6.93
2018-07-19T02:28:56.648Z,7.53
2018-07-19T02:31:25.369Z,6.00
2018-07-19T02:33:53.996Z,6.03
2018-07-19T02:36:22.660Z,6.90
2018-07-19T02:38:51.369Z,6.00
2018-07-19T02:41:20.103Z,5.80
2018-07-19T02:43:48.958Z,6.13
2018-07-19T02:46:17.512Z,6.03
2018-07-19T02:48:46.744Z,6.10
2018-07-19T02:51:15.428Z,6.80
2018-07-19T02:53:44.044Z,6.37
2018-07-19T02:56:12.771Z,6.47
2018-07-19T02:58:41.369Z,6.67
2018-07-19T03:01:10.040Z,6.93
2018-07-19T03:03:38.680Z,7.40
2018-07-19T03:06:07.364Z,7.57
2018-07-19T03:08:36.623Z,7.07
2018-07-19T03:11:05.963Z,7.80
2018-07-19T03:13:34.568Z,7.17
2018-07-19T03:16:03.728Z,6.27
2018-07-19T03:18:32.883Z,7.47
2018-07-19T03:21:01.473Z,7.23
2018-07-19T03:23:30.332Z,7.30
2018-07-19T03:25:58.949Z,7.07
2018-07-19T03:28:27.556Z,7.00
2018-07-19T03:30:56.346Z,7.17
2018-07-19T03:33:24.571Z,7.47
2018-07-19T03:35:53.181Z,6.67
2018-07-19T03:38:21.788Z,6.63
2018-07-19T03:40:50.495Z,6.67
2018-07-19T03:43:19.278Z,6.97
2018-07-19T03:45:47.960Z,6.70
2018-07-19T03:48:16.690Z,6.93
2018-07-19T03:50:45.460Z,7.13
2018-07-19T03:53:14.064Z,6.37
2018-07-19T03:55:42.657Z,6.87
2018-07-19T03:58:11.264Z,6.93
2018-07-19T04:00:39.912Z,6.83
2018-07-19T04:03:08.593Z,6.70
2018-07-19T04:05:37.165Z,7.10
2018-07-19T04:08:05.985Z,7.23
2018-07-19T04:10:34.620Z,7.00
2018-07-19T04:13:03.260Z,7.47
2018-07-19T04:15:31.939Z,7.50
2018-07-19T04:18:00.630Z,7.83
2018-07-19T04:20:30.758Z,7.53
2018-07-19T04:22:59.384Z,6.87
2018-07-19T04:25:28.284Z,6.60
2018-07-19T04:27:57.866Z,6.77
2018-07-19T04:30:27.013Z,7.30
2018-07-19T04:32:55.904Z,6.20
2018-07-19T04:35:24.535Z,6.47
2018-07-19T04:37:53.212Z,6.67
2018-07-19T04:40:21.849Z,6.10
2018-07-19T04:42:50.500Z,6.00
2018-07-19T04:45:19.672Z,5.83
2018-07-19T04:47:48.307Z,5.73
2018-07-19T04:50:16.965Z,6.07
2018-07-19T04:52:46.074Z,5.60
2018-07-19T04:55:14.772Z,5.53
2018-07-19T04:57:43.429Z,5.83
2018-07-19T05:00:12.045Z,5.73
2018-07-19T05:02:40.709Z,5.60
2018-07-19T05:05:09.343Z,6.00
2018-07-19T05:07:38.488Z,5.47
2018-07-19T05:10:07.146Z,5.93
2018-07-19T05:12:35.792Z,5.60
2018-07-19T05:15:04.510Z,6.00
2018-07-19T05:17:33.160Z,5.80
2018-07-19T05:20:01.836Z,5.93
2018-07-19T05:22:31.469Z,5.90
2018-07-19T05:25:00.231Z,5.80
2018-07-19T05:27:28.883Z,6.20
2018-07-19T05:29:57.502Z,6.17
2018-07-19T05:32:26.046Z,6.07
2018-07-19T05:34:54.546Z,5.63
2018-07-19T05:37:23.117Z,5.67
2018-07-19T05:39:51.642Z,5.27
2018-07-19T05:42:20.280Z,5.30
2018-07-19T05:44:48.891Z,5.37
2018-07-19T05:47:17.406Z,5.60
2018-07-19T05:49:45.985Z,5.30
2018-07-19T05:52:14.610Z,5.37
2018-07-19T05:54:43.090Z,4.97
2018-07-19T05:57:11.694Z,5.40
2018-07-19T05:59:40.210Z,5.70
2018-07-19T06:02:08.994Z,5.73
2018-07-19T06:04:37.535Z,6.67
2018-07-19T06:07:06.170Z,5.50
2018-07-19T06:09:34.750Z,5.30
2018-07-19T06:12:03.242Z,5.10
2018-07-19T06:14:31.726Z,5.20
2018-07-19T06:17:00.238Z,5.57
2018-07-19T06:19:28.942Z,30.77
2018-07-19T06:21:57.524Z,9.70
2018-07-19T06:24:26.039Z,26.63
2018-07-19T06:26:54.518Z,6.13
2018-07-19T06:29:23.836Z,6.03
2018-07-19T06:31:52.554Z,6.83
2018-07-19T06:34:21.305Z,32.33
2018-07-19T06:36:49.872Z,14.27
2018-07-19T06:39:18.462Z,11.87
2018-07-19T06:41:47.082Z,6.07
2018-07-19T06:44:15.692Z,6.50
2018-07-19T06:46:44.282Z,6.30
2018-07-19T06:49:12.926Z,6.60
2018-07-19T06:51:41.620Z,6.53
2018-07-19T06:54:10.162Z,6.43
2018-07-19T06:56:38.905Z,6.17
2018-07-19T06:59:07.475Z,5.73
2018-07-19T07:01:36.111Z,13.27
2018-07-19T07:04:04.926Z,7.33
2018-07-19T07:06:33.595Z,7.40
2018-07-19T07:09:02.322Z,6.03
2018-07-19T07:11:30.890Z,4.90
2018-07-19T07:13:59.531Z,5.83
2018-07-19T07:16:28.335Z,6.43
2018-07-19T07:18:56.886Z,6.77
2018-07-19T07:21:25.538Z,6.50
2018-07-19T07:23:54.098Z,7.47
2018-07-19T07:26:22.701Z,7.27
2018-07-19T07:28:51.270Z,6.27
2018-07-19T07:31:19.851Z,6.83
2018-07-19T07:33:48.514Z,6.33
2018-07-19T07:36:17.148Z,6.20
2018-07-19T07:38:45.943Z,6.37
2018-07-19T07:41:14.418Z,6.83
2018-07-19T07:43:42.978Z,6.57
2018-07-19T07:46:11.629Z,6.73
2018-07-19T07:48:40.183Z,6.33
2018-07-19T07:51:08.912Z,5.90
2018-07-19T07:53:37.540Z,5.90
2018-07-19T07:56:06.248Z,5.90
2018-07-19T07:58:34.849Z,5.90
2018-07-19T08:01:03.412Z,5.63
2018-07-19T08:03:32.047Z,5.70
2018-07-19T08:06:00.690Z,5.63
2018-07-19T08:08:29.398Z,6.30
2018-07-19T08:10:58.559Z,6.67
2018-07-19T08:13:27.246Z,5.83
2018-07-19T08:15:55.900Z,7.50
2018-07-19T08:18:24.330Z,9.10
2018-07-19T08:20:52.890Z,8.60
2018-07-19T08:23:21.801Z,9.50
2018-07-19T08:25:50.375Z,9.60
2018-07-19T08:28:19.318Z,9.40
2018-07-19T08:30:47.958Z,9.63
2018-07-19T08:33:16.722Z,9.40
2018-07-19T08:35:45.282Z,9.67
2018-07-19T08:38:13.957Z,9.47
2018-07-19T08:40:42.512Z,9.40
2018-07-19T08:43:11.031Z,9.27
2018-07-19T08:45:39.634Z,9.20
2018-07-19T08:48:08.202Z,9.37
2018-07-19T08:50:36.831Z,9.60
2018-07-19T08:53:05.492Z,9.13
2018-07-19T08:55:34.122Z,10.97
2018-07-19T08:58:02.714Z,9.30
2018-07-19T09:00:31.370Z,10.07
2018-07-19T09:03:00.179Z,10.27
2018-07-19T09:05:28.850Z,10.30
2018-07-19T09:07:57.454Z,10.37
2018-07-19T09:10:26.074Z,10.67
2018-07-19T09:12:54.621Z,10.23
2018-07-19T09:15:23.171Z,10.90
2018-07-19T09:17:51.417Z,11.50
2018-07-19T09:20:20.203Z,12.50
2018-07-19T09:22:48.811Z,12.40
2018-07-19T09:25:17.617Z,12.80
2018-07-19T09:27:46.296Z,13.50
2018-07-19T09:30:14.837Z,14.57
2018-07-19T09:32:43.464Z,13.83
2018-07-19T09:35:12.010Z,13.37
2018-07-19T09:37:40.648Z,12.93
2018-07-19T09:40:09.334Z,11.50
2018-07-19T09:42:38.260Z,12.03
2018-07-19T09:45:06.911Z,11.40
2018-07-19T09:47:35.482Z,10.90
2018-07-19T09:50:04.182Z,10.93
2018-07-19T09:52:32.842Z,10.63
2018-07-19T09:55:02.506Z,11.00
2018-07-19T09:57:31.830Z,10.90
2018-07-19T10:00:01.324Z,9.87
2018-07-19T10:02:29.986Z,10.90
2018-07-19T10:04:58.569Z,10.77
2018-07-19T10:07:27.114Z,10.27
2018-07-19T10:09:55.741Z,10.63
2018-07-19T10:12:24.307Z,10.13
2018-07-19T10:14:52.895Z,10.00
2018-07-19T10:17:21.436Z,9.70
2018-07-19T10:19:50.018Z,10.50
2018-07-19T10:22:18.558Z,10.33
2018-07-19T10:24:47.199Z,9.80
2018-07-19T10:27:15.822Z,10.00
2018-07-19T10:29:44.784Z,9.83
2018-07-19T10:32:13.353Z,9.57
2018-07-19T10:34:41.839Z,9.50
2018-07-19T10:37:10.603Z,8.73
2018-07-19T10:39:39.202Z,9.20
2018-07-19T10:42:08.222Z,9.00
2018-07-19T10:44:36.801Z,9.27
2018-07-19T10:47:05.446Z,8.90
2018-07-19T10:49:33.985Z,8.80
2018-07-19T10:52:02.528Z,9.20
2018-07-19T10:54:31.178Z,8.33
2018-07-19T10:56:59.833Z,8.80
2018-07-19T10:59:28.446Z,8.80
2018-07-19T11:01:57.073Z,8.57
2018-07-19T11:04:25.600Z,8.57
2018-07-19T11:06:54.181Z,8.17
2018-07-19T11:09:22.770Z,8.23
2018-07-19T11:11:51.416Z,7.40
2018-07-19T11:14:19.951Z,8.23
2018-07-19T11:16:48.613Z,8.50
2018-07-19T11:19:17.145Z,8.57
2018-07-19T11:21:45.694Z,11.17
2018-07-19T11:24:14.226Z,11.03
2018-07-19T11:26:42.810Z,11.57
2018-07-19T11:29:11.495Z,13.47
2018-07-19T11:31:40.132Z,13.03
2018-07-19T11:34:08.750Z,14.33
2018-07-19T11:36:37.865Z,15.73
2018-07-19T11:39:07.826Z,17.23
2018-07-19T11:41:36.883Z,18.63
2018-07-19T11:44:05.589Z,18.07
2018-07-19T11:46:34.158Z,18.60
2018-07-19T11:49:02.651Z,18.87
2018-07-19T11:51:32.229Z,19.20
2018-07-19T11:54:00.872Z,19.20
2018-07-19T11:56:29.415Z,17.93
2018-07-19T11:58:58.040Z,18.43
2018-07-19T12:01:26.622Z,18.03
2018-07-19T12:03:55.418Z,17.60
2018-07-19T12:06:24.919Z,17.13
2018-07-19T12:08:53.458Z,17.23
2018-07-19T12:11:22.033Z,17.13
2018-07-19T12:13:50.715Z,15.23
2018-07-19T12:16:19.079Z,15.63
2018-07-19T12:18:47.674Z,15.13
2018-07-19T12:21:16.582Z,15.63
2018-07-19T12:23:45.183Z,14.80
2018-07-19T12:26:13.777Z,14.27
2018-07-19T12:28:42.386Z,14.37
2018-07-19T12:31:10.938Z,13.33
2018-07-19T12:33:39.536Z,14.50
2018-07-19T12:36:08.199Z,13.80
2018-07-19T12:38:36.733Z,14.07
2018-07-19T12:41:05.514Z,14.17
2018-07-19T12:43:34.086Z,13.70
2018-07-19T12:46:03.076Z,13.10
2018-07-19T12:48:31.774Z,13.00
2018-07-19T12:51:00.494Z,13.47
2018-07-19T12:53:29.098Z,12.97
2018-07-19T12:55:57.689Z,13.70
2018-07-19T12:58:26.250Z,14.17
2018-07-19T13:00:54.868Z,14.70
2018-07-19T13:03:23.479Z,15.03
2018-07-19T13:05:52.010Z,15.43
2018-07-19T13:08:20.596Z,14.37
2018-07-19T13:10:49.142Z,14.57
2018-07-19T13:13:18.110Z,13.73
2018-07-19T13:15:47.347Z,13.83
2018-07-19T13:18:16.011Z,15.87
2018-07-19T13:20:44.207Z,14.50
2018-07-19T13:23:12.743Z,15.50
2018-07-19T13:25:41.306Z,16.30
2018-07-19T13:28:09.844Z,15.73
2018-07-19T13:30:38.053Z,16.13
2018-07-19T13:33:06.636Z,18.47
2018-07-19T13:35:35.227Z,19.90
2018-07-19T13:38:03.854Z,18.53
2018-07-19T13:40:32.559Z,19.80
2018-07-19T13:43:01.096Z,19.40
2018-07-19T13:45:29.746Z,18.60
2018-07-19T13:47:58.470Z,18.23
2018-07-19T13:50:27.035Z,18.20
2018-07-19T13:53:06.680Z,17.90
2018-07-19T13:55:35.347Z,18.20
2018-07-19T13:58:03.909Z,17.30
2018-07-19T14:00:32.279Z,18.10
2018-07-19T14:03:00.498Z,17.97
2018-07-19T14:05:29.159Z,18.57
2018-07-19T14:07:57.775Z,17.57
2018-07-19T14:10:26.427Z,16.87
2018-07-19T14:12:55.338Z,16.33
2018-07-19T14:15:23.862Z,17.13
2018-07-19T14:17:52.446Z,16.17
2018-07-19T14:20:21.546Z,15.27
2018-07-19T14:22:50.066Z,14.50
2018-07-19T14:25:18.566Z,15.23
2018-07-19T14:27:47.333Z,14.70
2018-07-19T14:30:16.010Z,15.47
2018-07-19T14:32:44.593Z,15.97
2018-07-19T14:35:13.119Z,17.13
2018-07-19T14:37:41.873Z,16.70
2018-07-19T14:40:10.419Z,15.87
2018-07-19T14:42:38.940Z,15.93
2018-07-19T14:45:07.533Z,16.83
2018-07-19T14:47:36.136Z,17.17
2018-07-19T14:50:05.081Z,15.63
2018-07-19T14:52:33.710Z,15.83
2018-07-19T14:55:02.337Z,15.23
2018-07-19T14:57:31.058Z,15.87
2018-07-19T14:59:59.761Z,15.27
2018-07-19T15:02:28.388Z,14.93
2018-07-19T15:04:58.038Z,15.77
2018-07-19T15:07:26.827Z,16.27
2018-07-19T15:09:55.865Z,15.50
2018-07-19T15:12:24.618Z,15.10
2018-07-19T15:14:53.259Z,15.47
2018-07-19T15:17:21.961Z,15.10
2018-07-19T15:19:51.009Z,14.23
2018-07-19T15:22:19.626Z,14.30
2018-07-19T15:24:48.307Z,12.97
2018-07-19T15:27:16.951Z,13.70
2018-07-19T15:29:45.596Z,14.50
2018-07-19T15:32:14.220Z,14.63
2018-07-19T15:34:42.919Z,18.77
2018-07-19T15:37:11.564Z,19.00
2018-07-19T15:39:40.957Z,17.90
2018-07-19T15:42:09.576Z,17.20
2018-07-19T15:44:38.198Z,15.13
2018-07-19T15:47:07.042Z,14.53
2018-07-19T15:49:35.794Z,13.77
2018-07-19T15:52:04.566Z,13.50
2018-07-19T15:54:33.160Z,13.03
2018-07-19T15:57:01.851Z,12.87
2018-07-19T15:59:30.436Z,13.73
2018-07-19T16:01:59.106Z,14.07
2018-07-19T16:04:27.757Z,17.83
2018-07-19T16:06:56.404Z,23.57
2018-07-19T16:09:25.047Z,26.40
2018-07-19T16:11:53.679Z,26.73
2018-07-19T16:14:22.381Z,26.67
2018-07-19T16:16:50.948Z,27.70
2018-07-19T16:19:19.634Z,24.27
2018-07-19T16:21:48.411Z,22.87
2018-07-19T16:24:17.001Z,22.03
2018-07-19T16:26:45.666Z,21.47
2018-07-19T16:29:14.199Z,20.87
2018-07-19T16:31:42.851Z,21.83
2018-07-19T16:34:11.506Z,19.33
2018-07-19T16:36:40.134Z,19.87
2018-07-19T16:39:09.935Z,20.97
2018-07-19T16:41:38.995Z,21.80
2018-07-19T16:44:07.979Z,24.17
2018-07-19T16:46:36.736Z,26.23
2018-07-19T16:49:05.409Z,28.00
2018-07-19T16:51:34.010Z,28.00
2018-07-19T16:54:02.630Z,26.27
2018-07-19T16:56:31.881Z,26.70
2018-07-19T16:59:00.648Z,25.60
2018-07-19T17:01:29.262Z,23.83
2018-07-19T17:03:57.840Z,21.77
2018-07-19T17:06:26.450Z,19.87
2018-07-19T17:08:55.133Z,20.63
2018-07-19T17:11:23.725Z,18.87
2018-07-19T17:13:52.248Z,18.93
2018-07-19T17:16:20.777Z,18.30
2018-07-19T17:18:49.334Z,17.30
2018-07-19T17:21:18.083Z,16.57
2018-07-19T17:23:46.617Z,15.93
2018-07-19T17:26:15.186Z,16.70
2018-07-19T17:28:43.732Z,16.37
2018-07-19T17:31:12.281Z,15.77
2018-07-19T17:33:40.889Z,16.43
2018-07-19T17:36:09.129Z,16.93
2018-07-19T17:38:37.665Z,17.70
2018-07-19T17:41:06.454Z,20.10
2018-07-19T17:43:35.363Z,22.40
2018-07-19T17:46:04.474Z,23.80
2018-07-19T17:48:33.194Z,23.23
2018-07-19T17:51:01.715Z,25.07
2018-07-19T17:53:30.390Z,23.73
2018-07-19T17:55:58.965Z,23.90
2018-07-19T17:58:27.467Z,22.90
2018-07-19T18:00:56.218Z,24.33
2018-07-19T18:03:24.730Z,24.67
2018-07-19T18:05:53.290Z,23.33
2018-07-19T18:08:21.782Z,24.67
2018-07-19T18:10:50.483Z,24.50
2018-07-19T18:13:19.206Z,25.70
2018-07-19T18:15:47.759Z,24.93
2018-07-19T18:18:16.270Z,25.70
2018-07-19T18:20:44.877Z,26.37
2018-07-19T18:23:13.401Z,26.97
2018-07-19T18:25:41.968Z,25.10
2018-07-19T18:28:10.607Z,25.43
2018-07-19T18:30:39.231Z,25.77
2018-07-19T18:33:07.726Z,24.50
2018-07-19T18:35:37.391Z,23.63
2018-07-19T18:38:06.378Z,23.80
2018-07-19T18:40:35.257Z,23.70
2018-07-19T18:43:04.790Z,22.87
2018-07-19T18:45:33.707Z,22.03
2018-07-19T18:48:02.294Z,22.40
2018-07-19T18:50:30.822Z,22.10
2018-07-19T18:52:59.434Z,22.53
2018-07-19T18:55:27.971Z,22.40
2018-07-19T18:57:56.532Z,22.80
2018-07-19T19:00:25.197Z,22.53
2018-07-19T19:02:53.714Z,23.90
2018-07-19T19:05:22.335Z,24.03
2018-07-19T19:07:50.868Z,23.90
2018-07-19T19:10:19.396Z,23.93
2018-07-19T19:12:48.029Z,23.20
2018-07-19T19:15:16.556Z,24.60
2018-07-19T19:17:45.154Z,24.27
2018-07-19T19:20:13.672Z,23.53
2018-07-19T19:22:42.217Z,23.33
2018-07-19T19:25:10.866Z,23.00
2018-07-19T19:27:39.462Z,24.10
2018-07-19T19:30:08.007Z,24.07
2018-07-19T19:32:36.580Z,23.50
2018-07-19T19:35:05.138Z,24.27
2018-07-19T19:37:33.826Z,24.53
2018-07-19T19:40:02.876Z,24.33
2018-07-19T19:42:33.136Z,24.50
2018-07-19T19:45:01.807Z,21.83
2018-07-19T19:47:30.354Z,20.33
2018-07-19T19:49:58.902Z,19.80
2018-07-19T19:52:28.234Z,20.97
2018-07-19T19:54:56.725Z,21.40
2018-07-19T19:57:25.247Z,21.13
2018-07-19T19:59:53.900Z,21.40
2018-07-19T20:02:22.591Z,21.63
2018-07-19T20:04:51.158Z,21.27
2018-07-19T20:07:19.665Z,21.93
2018-07-19T20:09:48.214Z,21.83
2018-07-19T20:12:16.778Z,21.83
2018-07-19T20:14:45.386Z,21.50
2018-07-19T20:17:14.039Z,22.70
2018-07-19T20:19:42.617Z,23.80
2018-07-19T20:22:11.258Z,23.83
2018-07-19T20:24:40.390Z,23.53
2018-07-19T20:27:08.994Z,24.47
2018-07-19T20:29:37.631Z,24.40
2018-07-19T20:32:06.160Z,25.10
2018-07-19T20:34:34.821Z,25.73
2018-07-19T20:37:03.432Z,25.10
2018-07-19T20:39:32.130Z,24.90
2018-07-19T20:42:00.768Z,24.80
2018-07-19T20:44:28.963Z,25.60
2018-07-19T20:46:57.546Z,25.90
2018-07-19T20:49:26.208Z,25.57
2018-07-19T20:51:54.799Z,25.60
2018-07-19T20:54:23.509Z,25.63
2018-07-19T20:56:52.191Z,24.60
2018-07-19T20:59:21.027Z,25.07
2018-07-19T21:01:49.789Z,25.60
2018-07-19T21:04:18.402Z,24.37
2018-07-19T21:06:47.171Z,25.83
2018-07-19T21:09:15.707Z,24.67
2018-07-19T21:11:44.410Z,24.50
2018-07-19T21:14:13.030Z,25.40
2018-07-19T21:16:41.684Z,25.07
2018-07-19T21:19:10.326Z,26.07
2018-07-19T21:21:38.947Z,25.67
2018-07-19T21:24:07.887Z,26.63
2018-07-19T21:26:36.582Z,26.47
2018-07-19T21:29:05.321Z,25.57
2018-07-19T21:31:34.034Z,27.57
2018-07-19T21:34:02.575Z,28.13
2018-07-19T21:36:31.159Z,26.60
2018-07-19T21:38:59.759Z,26.60
2018-07-19T21:41:28.350Z,28.43
2018-07-19T21:43:56.948Z,27.93
2018-07-19T21:46:25.610Z,29.57
2018-07-19T21:48:54.218Z,29.60
2018-07-19T21:51:22.805Z,28.50
2018-07-19T21:53:51.436Z,29.27
2018-07-19T21:56:20.036Z,28.93
2018-07-19T21:58:48.589Z,29.70
2018-07-19T22:01:17.301Z,29.93
2018-07-19T22:03:45.858Z,29.03
2018-07-19T22:06:14.502Z,29.03
2018-07-19T22:08:43.062Z,29.20
2018-07-19T22:11:12.217Z,28.47
2018-07-19T22:13:40.834Z,29.87
2018-07-19T22:16:09.482Z,29.63
2018-07-19T22:18:40.550Z,28.63
2018-07-19T22:21:09.223Z,29.70
2018-07-19T22:23:37.817Z,28.93
2018-07-19T22:26:06.473Z,30.30
2018-07-19T22:28:34.977Z,30.03
2018-07-19T22:31:03.599Z,29.80
2018-07-19T22:33:32.164Z,31.03
2018-07-19T22:36:00.712Z,31.37
2018-07-19T22:38:29.308Z,31.10
2018-07-19T22:40:58.456Z,32.53
2018-07-19T22:43:26.990Z,30.87
2018-07-19T22:45:55.610Z,32.37
2018-07-19T22:48:24.195Z,32.10
2018-07-19T22:50:52.823Z,33.00
2018-07-19T22:53:21.413Z,31.60
2018-07-19T22:55:50.025Z,31.57
2018-07-19T22:58:18.601Z,33.07
2018-07-19T23:00:47.159Z,32.03
2018-07-19T23:03:15.792Z,31.93
2018-07-19T23:05:44.449Z,32.03
2018-07-19T23:08:12.974Z,31.67
2018-07-19T23:10:41.574Z,31.37
2018-07-19T23:13:10.183Z,31.80
2018-07-19T23:15:38.760Z,31.80
2018-07-19T23:18:07.416Z,32.03
2018-07-19T23:20:35.983Z,30.37
2018-07-19T23:23:04.612Z,31.10
2018-07-19T23:25:33.200Z,32.60
2018-07-19T23:28:01.841Z,30.33
2018-07-19T23:30:32.833Z,30.63
2018-07-19T23:33:01.577Z,29.40
2018-07-19T23:35:33.687Z,30.47
2018-07-19T23:38:04.806Z,29.30
2018-07-19T23:40:36.348Z,30.40
2018-07-19T23:43:10.325Z,28.67
2018-07-19T23:46:42.955Z,28.43
2018-07-19T23:49:11.565Z,28.00
2018-07-19T23:51:40.150Z,28.53
2018-07-19T23:54:09.178Z,28.80
2018-07-19T23:56:37.738Z,29.20
2018-07-19T23:59:06.364Z,30.53
